Time,TemperatureF,DewpointF,PressureIn,WindDirection,WindDirectionDegrees,WindSpeedMPH,WindSpeedGustMPH,Humidity,HourlyPrecipIn,Conditions,Clouds,dailyrainin,SoftwareType,DateUTC
2013-09-24 00:04:00,44.0,44.0,30.14,ESE,103,0.0,0.0,100,0.00,,,0.00,,2013-09-24 04:04:00,
2013-09-24 00:14:00,44.0,44.0,30.14,ESE,103,0.0,0.0,100,0.00,,,0.00,,2013-09-24 04:14:00,
2013-09-24 00:24:00,44.0,44.0,30.14,ESE,103,0.0,0.0,100,0.00,,,0.00,,2013-09-24 04:24:00,
2013-09-24 00:54:00,44.0,44.0,30.13,ESE,103,0.0,0.0,100,0.00,,,0.00,,2013-09-24 04:54:00,
2013-09-24 01:23:00,43.0,43.0,30.12,ESE,103,0.0,0.0,100,0.00,,,0.00,,2013-09-24 05:23:00,
2013-09-24 01:53:00,43.0,43.0,30.13,ESE,103,0.0,0.0,100,0.00,,,0.00,,2013-09-24 05:53:00,
2013-09-24 02:22:00,43.0,43.0,30.13,ESE,103,0.0,0.0,100,0.00,,,0.00,,2013-09-24 06:22:00,
2013-09-24 02:32:00,43.0,43.0,30.13,ESE,103,0.0,0.0,100,0.00,,,0.00,,2013-09-24 06:32:00,
2013-09-24 02:52:00,43.0,43.0,30.13,ESE,103,0.0,0.0,100,0.00,,,0.00,,2013-09-24 06:52:00,
2013-09-24 03:12:00,42.0,42.0,30.13,ESE,103,0.0,0.0,100,0.00,,,0.00,,2013-09-24 07:12:00,
2013-09-24 03:22:00,42.0,42.0,30.13,ESE,103,0.0,0.0,100,0.00,,,0.00,,2013-09-24 07:22:00,
2013-09-24 03:52:00,42.0,42.0,30.12,ESE,103,0.0,0.0,100,0.00,,,0.00,,2013-09-24 07:52:00,
2013-09-24 04:11:00,42.0,42.0,30.12,ESE,103,0.0,0.0,100,0.00,,,0.00,,2013-09-24 08:11:00,
2013-09-24 04:23:00,42.0,42.0,30.12,ESE,103,0.0,0.0,100,0.00,,,0.00,,2013-09-24 08:23:00,
2013-09-24 04:32:00,42.0,42.0,30.12,ESE,103,0.0,0.0,100,0.00,,,0.00,,2013-09-24 08:32:00,
2013-09-24 04:52:00,42.0,42.0,30.12,ESE,103,0.0,0.0,100,0.00,,,0.00,,2013-09-24 08:52:00,
2013-09-24 05:02:00,42.0,42.0,30.12,ESE,103,0.0,0.0,100,0.00,,,0.00,,2013-09-24 09:02:00,
2013-09-24 05:21:00,42.0,42.0,30.12,ESE,103,0.0,0.0,100,0.00,,,0.00,,2013-09-24 09:21:00,
2013-09-24 05:54:00,41.0,41.0,30.11,ESE,103,0.0,0.0,100,0.00,,,0.00,,2013-09-24 09:54:00,
2013-09-24 06:23:00,41.0,41.0,30.11,ESE,103,0.0,0.0,100,0.00,,,0.00,,2013-09-24 10:23:00,
2013-09-24 06:53:00,41.0,41.0,30.11,ESE,103,0.0,0.0,100,0.00,,,0.00,,2013-09-24 10:53:00,
2013-09-24 07:22:00,41.0,41.0,30.12,ESE,103,0.0,0.0,100,0.00,,,0.00,,2013-09-24 11:22:00,
2013-09-24 07:52:00,39.0,39.0,30.13,ESE,103,0.0,0.0,100,0.00,,,0.00,,2013-09-24 11:52:00,
2013-09-24 08:12:00,39.0,39.0,30.13,ESE,103,0.0,0.0,100,0.00,,,0.00,,2013-09-24 12:12:00,
2013-09-24 08:22:00,39.0,39.0,30.13,ESE,103,0.0,0.0,100,0.00,,,0.00,,2013-09-24 12:22:00,
2013-09-24 08:52:00,42.0,42.0,30.13,ESE,103,0.0,0.0,100,0.00,,,0.00,,2013-09-24 12:52:00,
2013-09-24 11:43:00,58.0,52.0,30.12,ESE,103,0.0,0.0,79,0.00,,,0.00,,2013-09-24 15:43:00,
2013-09-24 12:53:00,65.0,51.0,30.10,NNE,31,0.0,0.0,61,0.00,,,0.00,,2013-09-24 16:53:00,
2013-09-24 13:23:00,66.0,52.0,30.08,North,357,0.0,0.0,60,0.00,,,0.00,,2013-09-24 17:23:00,
2013-09-24 13:54:00,68.0,49.0,30.07,SE,131,0.0,0.0,51,0.00,,,0.00,,2013-09-24 17:54:00,
2013-09-24 14:22:00,68.0,51.0,30.06,SSW,211,0.0,0.0,55,0.00,,,0.00,,2013-09-24 18:22:00,
2013-09-24 14:52:00,68.0,52.0,30.05,WNW,298,0.0,0.0,56,0.00,,,0.00,,2013-09-24 18:52:00,
2013-09-24 15:22:00,71.0,52.0,30.03,SE,132,0.0,0.0,51,0.00,,,0.00,,2013-09-24 19:22:00,
2013-09-24 15:32:00,71.0,52.0,30.03,SE,132,0.0,0.0,51,0.00,,,0.00,,2013-09-24 19:32:00,
2013-09-24 15:52:00,70.0,51.0,30.02,North,11,2.0,0.0,51,0.00,,,0.00,,2013-09-24 19:52:00,
2013-09-24 16:22:00,72.0,52.0,30.01,North,1,0.0,0.0,49,0.00,,,0.00,,2013-09-24 20:22:00,
2013-09-24 16:52:00,71.0,52.0,30.00,North,8,0.0,0.0,51,0.00,,,0.00,,2013-09-24 20:52:00,
2013-09-24 17:02:00,71.0,52.0,30.00,North,8,0.0,0.0,51,0.00,,,0.00,,2013-09-24 21:02:00,
2013-09-24 17:12:00,71.0,52.0,30.00,North,8,0.0,0.0,51,0.00,,,0.00,,2013-09-24 21:12:00,
2013-09-24 17:22:00,71.0,52.0,30.00,North,8,0.0,0.0,51,0.00,,,0.00,,2013-09-24 21:22:00,
2013-09-24 17:54:00,66.0,53.0,30.00,North,8,0.0,0.0,62,0.00,,,0.00,,2013-09-24 21:54:00,
2013-09-24 18:04:00,66.0,53.0,30.00,North,8,0.0,0.0,62,0.00,,,0.00,,2013-09-24 22:04:00,
2013-09-24 18:13:00,66.0,53.0,30.00,North,8,0.0,0.0,62,0.00,,,0.00,,2013-09-24 22:13:00,
2013-09-24 18:23:00,66.0,53.0,30.00,North,8,0.0,0.0,62,0.00,,,0.00,,2013-09-24 22:23:00,
2013-09-24 18:54:00,64.0,53.0,30.00,North,8,0.0,0.0,67,0.00,,,0.00,,2013-09-24 22:54:00,
2013-09-24 19:53:00,59.0,54.0,29.99,North,8,0.0,0.0,83,0.00,,,0.00,,2013-09-24 23:53:00,
2013-09-24 20:02:00,59.0,54.0,29.99,North,8,0.0,0.0,83,0.00,,,0.00,,2013-09-25 00:02:00,
2013-09-24 20:22:00,58.0,54.0,29.99,North,8,0.0,0.0,86,0.00,,,0.00,,2013-09-25 00:22:00,
2013-09-24 20:52:00,56.0,53.0,29.98,North,8,0.0,0.0,91,0.00,,,0.00,,2013-09-25 00:52:00,
2013-09-24 21:02:00,56.0,53.0,29.98,North,8,0.0,0.0,91,0.00,,,0.00,,2013-09-25 01:02:00,
2013-09-24 21:21:00,55.0,53.0,29.99,North,8,0.0,0.0,94,0.00,,,0.00,,2013-09-25 01:21:00,
2013-09-24 21:52:00,55.0,54.0,29.99,North,8,0.0,0.0,96,0.00,,,0.00,,2013-09-25 01:52:00,
2013-09-24 22:22:00,54.0,53.0,29.99,North,8,0.0,0.0,98,0.00,,,0.00,,2013-09-25 02:22:00,
2013-09-24 22:32:00,54.0,53.0,29.99,North,8,0.0,0.0,98,0.00,,,0.00,,2013-09-25 02:32:00,
2013-09-24 22:52:00,53.0,53.0,30.00,North,8,0.0,0.0,99,0.00,,,0.00,,2013-09-25 02:52:00,
2013-09-24 23:02:00,53.0,53.0,30.00,North,8,0.0,0.0,99,0.00,,,0.00,,2013-09-25 03:02:00,
2013-09-24 23:23:00,53.0,53.0,29.99,North,8,0.0,0.0,100,0.00,,,0.00,,2013-09-25 03:23:00,
2013-09-24 23:54:00,52.0,52.0,29.99,North,8,0.0,0.0,100,0.00,,,0.00,,2013-09-25 03:54:00,